Time;durP1;ratioP1;P1;durP2;ratioP2;P2;SDS_P1;SDS_P2;PMS_P1;PMS_P2;Temp;Humidity;BMP_temperature;BMP_pressure;BME280_temperature;BME280_humidity;BME280_pressure;Samples;Min_cycle;Max_cycle;Signal;HPM_P1;HPM_P2
2023/03/09 00:00:15;;;;;;;29.83;19.92;;;;;;;;;;5027392;28;20047;-78
2023/03/09 00:02:41;;;;;;;19.15;12.35;;;;;;;;;;5030853;28;20032;-76
2023/03/09 00:05:06;;;;;;;37.38;25.40;;;;;;;;;;5035779;28;20025;-78
2023/03/09 00:07:32;;;;;;;25.92;17.10;;;;;;;;;;5035053;28;20079;-79
2023/03/09 00:09:57;;;;;;;102.80;58.90;;;;;;;;;;5031815;28;20024;-77
2023/03/09 00:12:23;;;;;;;80.82;47.30;;;;;;;;;;5031629;28;20028;-78
2023/03/09 00:14:54;;;;;;;99.35;58.35;;;;;;;;;;5029074;28;20028;-78
2023/03/09 00:17:20;;;;;;;103.22;58.88;;;;;;;;;;5034563;28;20029;-78
2023/03/09 00:19:45;;;;;;;104.35;59.70;;;;;;;;;;5019983;28;20033;-78
2023/03/09 00:22:10;;;;;;;78.00;45.25;;;;;;;;;;5014522;28;20028;-78
2023/03/09 00:24:35;;;;;;;25.90;16.13;;;;;;;;;;5046202;28;20110;-76
2023/03/09 00:27:01;;;;;;;41.83;27.23;;;;;;;;;;5020259;28;20025;-77
2023/03/09 00:29:27;;;;;;;30.25;22.00;;;;;;;;;;5029330;28;20021;-77
2023/03/09 00:31:52;;;;;;;33.80;23.25;;;;;;;;;;5032285;28;20091;-77
2023/03/09 00:34:18;;;;;;;50.85;34.33;;;;;;;;;;5035621;28;20021;-77
2023/03/09 00:36:44;;;;;;;23.23;15.88;;;;;;;;;;5036156;28;20183;-76
2023/03/09 00:39:10;;;;;;;28.88;17.25;;;;;;;;;;5024101;28;20048;-77
2023/03/09 00:41:36;;;;;;;23.15;12.95;;;;;;;;;;5017882;28;20022;-76
2023/03/09 00:44:02;;;;;;;15.63;10.25;;;;;;;;;;5018071;28;20345;-78
2023/03/09 00:46:28;;;;;;;20.52;12.70;;;;;;;;;;5033776;28;20127;-79
2023/03/09 00:48:53;;;;;;;22.60;16.83;;;;;;;;;;5035284;28;20489;-78
2023/03/09 00:51:18;;;;;;;36.92;25.40;;;;;;;;;;5031519;28;20108;-79
2023/03/09 00:53:44;;;;;;;40.45;29.65;;;;;;;;;;5017902;28;20135;-78
2023/03/09 00:56:13;;;;;;;31.55;22.27;;;;;;;;;;5031205;28;20132;-77
2023/03/09 00:58:38;;;;;;;29.37;20.20;;;;;;;;;;5035427;28;20025;-77
2023/03/09 01:01:07;;;;;;;21.45;15.90;;;;;;;;;;5035552;28;20243;-78
2023/03/09 01:03:33;;;;;;;16.55;11.35;;;;;;;;;;5022855;28;20014;-79
2023/03/09 01:05:58;;;;;;;16.55;10.82;;;;;;;;;;5017685;28;20109;-78
2023/03/09 01:08:24;;;;;;;14.70;10.80;;;;;;;;;;5017557;28;20057;-77
2023/03/09 01:10:49;;;;;;;20.55;14.43;;;;;;;;;;5017569;28;20350;-79
2023/03/09 01:13:14;;;;;;;24.25;17.35;;;;;;;;;;5017502;28;20028;-78
2023/03/09 01:15:40;;;;;;;25.13;18.67;;;;;;;;;;5017473;28;20033;-78
2023/03/09 01:18:05;;;;;;;31.35;21.08;;;;;;;;;;5017545;28;20059;-78
2023/03/09 01:20:30;;;;;;;33.00;22.83;;;;;;;;;;5050342;28;20403;-79
2023/03/09 01:22:55;;;;;;;27.90;18.98;;;;;;;;;;5017204;28;20068;-79
2023/03/09 01:25:21;;;;;;;16.02;11.88;;;;;;;;;;5016987;28;20381;-77
2023/03/09 01:27:46;;;;;;;15.50;10.70;;;;;;;;;;5017299;28;20014;-78
2023/03/09 01:30:12;;;;;;;16.48;9.07;;;;;;;;;;5016899;28;20030;-78
2023/03/09 01:32:37;;;;;;;13.68;9.40;;;;;;;;;;5026247;28;20421;-78
2023/03/09 01:35:03;;;;;;;18.35;12.00;;;;;;;;;;5034894;28;20425;-79
2023/03/09 01:37:28;;;;;;;11.27;7.63;;;;;;;;;;5034427;28;20082;-78
2023/03/09 01:39:54;;;;;;;13.73;9.63;;;;;;;;;;5034538;28;20033;-78
2023/03/09 01:42:19;;;;;;;15.05;9.95;;;;;;;;;;5034485;28;20022;-78
2023/03/09 01:44:44;;;;;;;14.25;10.05;;;;;;;;;;5034393;28;20025;-78
2023/03/09 01:47:09;;;;;;;26.95;18.70;;;;;;;;;;5033766;28;20150;-77
2023/03/09 01:49:35;;;;;;;16.08;12.02;;;;;;;;;;5034550;28;20021;-79
2023/03/09 01:52:00;;;;;;;18.23;13.05;;;;;;;;;;5031347;28;20038;-78
2023/03/09 01:54:28;;;;;;;15.55;10.30;;;;;;;;;;5017991;28;20026;-79
2023/03/09 01:56:55;;;;;;;52.40;35.38;;;;;;;;;;5017529;28;20021;-77
2023/03/09 01:59:21;;;;;;;38.17;26.85;;;;;;;;;;5034164;28;20421;-77
2023/03/09 02:01:47;;;;;;;45.88;33.35;;;;;;;;;;5034552;28;20089;-77
2023/03/09 02:04:16;;;;;;;43.58;29.30;;;;;;;;;;5034609;28;20052;-77
2023/03/09 02:06:41;;;;;;;29.00;21.05;;;;;;;;;;5034269;28;20026;-77
2023/03/09 02:09:20;;;;;;;16.45;10.65;;;;;;;;;;5034159;28;20033;-76
2023/03/09 02:11:45;;;;;;;16.35;10.73;;;;;;;;;;5033987;28;20072;-77
2023/03/09 02:14:10;;;;;;;29.95;21.17;;;;;;;;;;5018264;28;20061;-79
2023/03/09 02:16:36;;;;;;;43.53;28.58;;;;;;;;;;5016176;28;20105;-77
2023/03/09 02:19:01;;;;;;;36.50;22.17;;;;;;;;;;5015840;28;20032;-75
2023/03/09 02:21:26;;;;;;;67.30;44.30;;;;;;;;;;5015999;28;20026;-77
2023/03/09 02:23:52;;;;;;;42.30;29.33;;;;;;;;;;5026249;28;20421;-77
2023/03/09 02:26:20;;;;;;;19.48;14.70;;;;;;;;;;5034039;28;20029;-77
2023/03/09 02:28:45;;;;;;;18.90;11.93;;;;;;;;;;5033930;28;20040;-76
2023/03/09 02:31:12;;;;;;;14.50;11.25;;;;;;;;;;5033616;28;20017;-76
2023/03/09 02:33:38;;;;;;;12.02;8.48;;;;;;;;;;5033512;28;20470;-76
2023/03/09 02:36:03;;;;;;;12.35;7.25;;;;;;;;;;5033633;28;20018;-76
2023/03/09 02:38:28;;;;;;;16.05;10.95;;;;;;;;;;5033503;28;20033;-77
2023/03/09 02:40:56;;;;;;;17.45;10.00;;;;;;;;;;5023227;28;20164;-76
2023/03/09 02:43:24;;;;;;;14.52;9.10;;;;;;;;;;5015554;28;20441;-76
2023/03/09 02:45:50;;;;;;;12.25;8.60;;;;;;;;;;5021603;28;20129;-77
2023/03/09 02:48:16;;;;;;;6.93;4.75;;;;;;;;;;5033377;28;20097;-78
2023/03/09 02:50:41;;;;;;;15.75;10.35;;;;;;;;;;5033113;28;20191;-77
2023/03/09 02:53:07;;;;;;;26.27;18.17;;;;;;;;;;5028755;28;20033;-77
2023/03/09 02:55:32;;;;;;;12.13;9.25;;;;;;;;;;5032582;28;20021;-77
2023/03/09 02:57:57;;;;;;;6.15;4.35;;;;;;;;;;5017654;28;20028;-77
2023/03/09 03:00:23;;;;;;;18.00;10.50;;;;;;;;;;5015425;28;20030;-78
2023/03/09 03:02:48;;;;;;;11.68;8.70;;;;;;;;;;5047398;28;20049;-79
2023/03/09 03:05:13;;;;;;;13.40;9.77;;;;;;;;;;5015381;28;20022;-77
2023/03/09 03:07:39;;;;;;;9.90;7.57;;;;;;;;;;5014970;28;20022;-78
2023/03/09 03:10:04;;;;;;;8.07;6.22;;;;;;;;;;5015643;28;20429;-78
2023/03/09 03:12:30;;;;;;;4.60;3.60;;;;;;;;;;5015164;28;20034;-78
2023/03/09 03:14:55;;;;;;;4.13;3.42;;;;;;;;;;5014934;28;20030;-78
2023/03/09 03:17:20;;;;;;;5.45;3.70;;;;;;;;;;5015171;28;20104;-77
2023/03/09 03:19:45;;;;;;;4.45;3.28;;;;;;;;;;5014923;28;20120;-77
2023/03/09 03:22:11;;;;;;;4.20;2.85;;;;;;;;;;5015230;28;20103;-76
2023/03/09 03:24:37;;;;;;;3.95;2.00;;;;;;;;;;5027572;28;20429;-76
2023/03/09 03:27:02;;;;;;;3.25;2.92;;;;;;;;;;5015089;28;20117;-77
2023/03/09 03:29:28;;;;;;;4.15;3.50;;;;;;;;;;5014650;28;20117;-77
2023/03/09 03:31:53;;;;;;;7.20;3.88;;;;;;;;;;5015034;28;20117;-77
2023/03/09 03:34:18;;;;;;;4.57;2.40;;;;;;;;;;5014885;28;20061;-77
2023/03/09 03:36:44;;;;;;;3.42;2.25;;;;;;;;;;5014498;28;20025;-80
2023/03/09 03:39:09;;;;;;;3.17;2.40;;;;;;;;;;5016087;28;20510;-77
2023/03/09 03:41:34;;;;;;;3.25;2.50;;;;;;;;;;5024180;28;20105;-77
2023/03/09 03:44:00;;;;;;;3.97;2.80;;;;;;;;;;5031043;28;20028;-77
2023/03/09 03:46:25;;;;;;;4.68;2.50;;;;;;;;;;5036150;28;20466;-77
2023/03/09 03:48:50;;;;;;;6.50;5.35;;;;;;;;;;5034880;28;20116;-77
2023/03/09 03:51:16;;;;;;;4.13;2.47;;;;;;;;;;5029413;28;20119;-78
2023/03/09 03:53:42;;;;;;;5.00;3.20;;;;;;;;;;5029305;28;20029;-77
2023/03/09 03:56:08;;;;;;;7.65;4.55;;;;;;;;;;5035629;28;20060;-79
2023/03/09 03:58:33;;;;;;;18.30;13.13;;;;;;;;;;5030897;28;20055;-78
2023/03/09 04:00:58;;;;;;;12.93;8.93;;;;;;;;;;5035319;28;20079;-78
2023/03/09 04:03:24;;;;;;;9.65;6.93;;;;;;;;;;5034767;28;20080;-78
2023/03/09 04:05:49;;;;;;;9.90;6.30;;;;;;;;;;5025925;28;20478;-77
2023/03/09 04:08:14;;;;;;;9.27;6.55;;;;;;;;;;5031795;28;20017;-79
2023/03/09 04:10:40;;;;;;;5.60;4.25;;;;;;;;;;5035022;28;20044;-76
2023/03/09 04:13:05;;;;;;;6.28;4.35;;;;;;;;;;5032421;28;20451;-78
2023/03/09 04:15:34;;;;;;;6.13;4.47;;;;;;;;;;5036758;28;20479;-78
2023/03/09 04:17:59;;;;;;;8.15;7.03;;;;;;;;;;5026545;28;20024;-79
2023/03/09 04:20:25;;;;;;;9.07;7.18;;;;;;;;;;5032022;28;20029;-77
2023/03/09 04:22:50;;;;;;;10.02;7.53;;;;;;;;;;5035441;28;20029;-78
2023/03/09 04:25:15;;;;;;;8.68;7.05;;;;;;;;;;5035009;28;20188;-77
2023/03/09 04:27:41;;;;;;;6.43;4.60;;;;;;;;;;5036892;28;20060;-77
2023/03/09 04:30:07;;;;;;;6.63;4.07;;;;;;;;;;5031979;28;20033;-77
2023/03/09 04:32:32;;;;;;;8.98;6.18;;;;;;;;;;5035819;28;20025;-78
2023/03/09 04:34:57;;;;;;;7.53;4.55;;;;;;;;;;5034170;28;20412;-77
2023/03/09 04:37:23;;;;;;;16.00;13.20;;;;;;;;;;5035685;28;20079;-77
2023/03/09 04:39:48;;;;;;;7.57;5.28;;;;;;;;;;5036088;28;20047;-78
2023/03/09 04:42:13;;;;;;;10.30;8.95;;;;;;;;;;5031527;28;20154;-77
2023/03/09 04:44:39;;;;;;;9.85;8.85;;;;;;;;;;5027307;28;20029;-78
2023/03/09 04:47:04;;;;;;;13.52;12.23;;;;;;;;;;5021394;28;20052;-78
2023/03/09 04:49:29;;;;;;;5.63;3.30;;;;;;;;;;5022812;28;20356;-76
2023/03/09 04:51:55;;;;;;;3.83;2.92;;;;;;;;;;5022199;28;20349;-78
2023/03/09 04:54:20;;;;;;;6.22;4.18;;;;;;;;;;5022795;28;20099;-77
2023/03/09 04:56:45;;;;;;;7.68;4.43;;;;;;;;;;5022748;28;20063;-77
2023/03/09 04:59:11;;;;;;;6.38;5.05;;;;;;;;;;5028758;28;20032;-77
2023/03/09 05:01:36;;;;;;;6.45;4.45;;;;;;;;;;5035584;28;20348;-78
2023/03/09 05:04:01;;;;;;;6.90;4.63;;;;;;;;;;5035315;28;20017;-77
2023/03/09 05:06:26;;;;;;;7.55;6.13;;;;;;;;;;5034078;28;20013;-75
2023/03/09 05:08:52;;;;;;;7.78;4.72;;;;;;;;;;5030456;28;20116;-77
2023/03/09 05:11:17;;;;;;;6.68;4.47;;;;;;;;;;5024080;28;20413;-79
2023/03/09 05:13:42;;;;;;;6.80;5.32;;;;;;;;;;5032005;28;20397;-76
2023/03/09 05:16:08;;;;;;;13.02;7.45;;;;;;;;;;5020833;28;20452;-76
2023/03/09 05:18:36;;;;;;;18.50;11.57;;;;;;;;;;5020320;28;20021;-77
2023/03/09 05:21:06;;;;;;;15.18;10.50;;;;;;;;;;5027268;28;20055;-78
2023/03/09 05:23:32;;;;;;;25.30;15.27;;;;;;;;;;5038836;28;20041;-78
2023/03/09 05:25:58;;;;;;;24.10;15.77;;;;;;;;;;5038626;28;20428;-78
2023/03/09 05:28:24;;;;;;;7.93;4.78;;;;;;;;;;5038408;28;20025;-79
2023/03/09 05:30:50;;;;;;;4.82;3.35;;;;;;;;;;5029393;28;20028;-76
2023/03/09 05:33:15;;;;;;;6.30;2.33;;;;;;;;;;5036584;28;20028;-75
2023/03/09 05:35:41;;;;;;;6.70;3.45;;;;;;;;;;5031808;28;20031;-78
2023/03/09 05:38:06;;;;;;;3.47;2.40;;;;;;;;;;5035123;28;20115;-76
2023/03/09 05:40:31;;;;;;;5.88;4.32;;;;;;;;;;5038004;28;20431;-80
2023/03/09 05:42:56;;;;;;;6.78;5.25;;;;;;;;;;5026846;28;20037;-77
2023/03/09 05:45:22;;;;;;;8.10;5.85;;;;;;;;;;5024410;28;20092;-77
2023/03/09 05:47:47;;;;;;;7.40;5.75;;;;;;;;;;5023165;28;20344;-76
2023/03/09 05:50:12;;;;;;;8.45;5.57;;;;;;;;;;5028767;28;20478;-76
2023/03/09 05:52:38;;;;;;;11.05;8.00;;;;;;;;;;5025154;28;20092;-79
2023/03/09 05:55:03;;;;;;;15.43;12.93;;;;;;;;;;5022808;28;20029;-77
2023/03/09 05:57:29;;;;;;;13.20;10.30;;;;;;;;;;5024084;28;20025;-76
2023/03/09 05:59:54;;;;;;;15.10;9.63;;;;;;;;;;5024975;28;20041;-76
2023/03/09 06:02:19;;;;;;;14.73;10.80;;;;;;;;;;5033146;28;20025;-77
2023/03/09 06:04:48;;;;;;;14.45;8.75;;;;;;;;;;5027789;28;20095;-76
2023/03/09 06:07:13;;;;;;;15.90;9.98;;;;;;;;;;5057694;28;20024;-76
2023/03/09 06:09:39;;;;;;;11.27;7.72;;;;;;;;;;5034316;28;20033;-76
2023/03/09 06:12:04;;;;;;;14.63;10.60;;;;;;;;;;5034296;28;20091;-77
2023/03/09 06:14:29;;;;;;;26.38;17.70;;;;;;;;;;5037218;28;20124;-78
2023/03/09 06:16:55;;;;;;;12.90;9.75;;;;;;;;;;5029643;28;20444;-77
2023/03/09 06:19:20;;;;;;;11.15;8.60;;;;;;;;;;5024891;28;20112;-78
2023/03/09 06:21:46;;;;;;;12.48;10.18;;;;;;;;;;5030719;28;20116;-77
2023/03/09 06:24:11;;;;;;;12.13;9.35;;;;;;;;;;5032354;28;20020;-77
2023/03/09 06:26:36;;;;;;;11.95;9.02;;;;;;;;;;5037861;28;20079;-77
2023/03/09 06:29:02;;;;;;;11.82;9.98;;;;;;;;;;5037842;28;20036;-78
2023/03/09 06:31:27;;;;;;;10.07;7.60;;;;;;;;;;5037886;28;20025;-79
2023/03/09 06:33:52;;;;;;;9.43;7.95;;;;;;;;;;5037381;28;20498;-78
2023/03/09 06:36:18;;;;;;;11.77;9.15;;;;;;;;;;5037915;28;20079;-79
2023/03/09 06:38:43;;;;;;;11.13;7.22;;;;;;;;;;5037627;28;20025;-78
2023/03/09 06:41:09;;;;;;;17.45;14.15;;;;;;;;;;5037837;28;20566;-77
2023/03/09 06:43:34;;;;;;;15.73;13.25;;;;;;;;;;5038408;28;20021;-77
2023/03/09 06:45:59;;;;;;;15.05;11.98;;;;;;;;;;5034789;28;20044;-76
2023/03/09 06:48:25;;;;;;;18.00;9.20;;;;;;;;;;5036798;28;20025;-78
2023/03/09 06:50:50;;;;;;;17.40;12.25;;;;;;;;;;5034101;28;20407;-79
2023/03/09 06:53:16;;;;;;;17.95;11.65;;;;;;;;;;5036155;28;20032;-78
2023/03/09 06:55:41;;;;;;;11.23;8.23;;;;;;;;;;5030677;28;20032;-77
2023/03/09 06:58:07;;;;;;;13.10;8.55;;;;;;;;;;5034208;28;20029;-77
2023/03/09 07:00:37;;;;;;;19.60;12.80;;;;;;;;;;5036582;28;20033;-79
2023/03/09 07:03:03;;;;;;;17.33;12.65;;;;;;;;;;5037827;28;20025;-78
2023/03/09 07:05:28;;;;;;;19.10;13.77;;;;;;;;;;5034529;28;20033;-78
2023/03/09 07:07:53;;;;;;;14.90;12.25;;;;;;;;;;5036956;28;20121;-77
2023/03/09 07:10:18;;;;;;;42.30;17.85;;;;;;;;;;5036712;28;20152;-79
2023/03/09 07:12:46;;;;;;;16.23;11.65;;;;;;;;;;5035679;28;20029;-80
2023/03/09 07:15:12;;;;;;;27.73;13.65;;;;;;;;;;5036810;28;20036;-78
2023/03/09 07:17:37;;;;;;;23.92;15.32;;;;;;;;;;5035033;28;20020;-78
2023/03/09 07:20:02;;;;;;;21.83;15.18;;;;;;;;;;5038352;28;20091;-77
2023/03/09 07:22:28;;;;;;;15.48;11.02;;;;;;;;;;5036340;28;20033;-79
2023/03/09 07:24:53;;;;;;;15.05;11.88;;;;;;;;;;5035481;28;20052;-80
2023/03/09 07:27:20;;;;;;;14.60;11.07;;;;;;;;;;5033909;28;20448;-85
2023/03/09 07:29:45;;;;;;;17.15;12.63;;;;;;;;;;5035553;28;20510;-78
2023/03/09 07:32:11;;;;;;;18.75;15.98;;;;;;;;;;5037015;28;20029;-77
2023/03/09 07:34:37;;;;;;;15.73;12.38;;;;;;;;;;5036262;28;20025;-77
2023/03/09 07:37:02;;;;;;;16.60;14.85;;;;;;;;;;5036379;28;20025;-79
2023/03/09 07:39:28;;;;;;;13.63;9.75;;;;;;;;;;5035802;28;20491;-78
2023/03/09 07:41:53;;;;;;;11.50;9.13;;;;;;;;;;5036515;28;20104;-77
2023/03/09 07:44:18;;;;;;;12.10;9.23;;;;;;;;;;5036121;28;20082;-77
2023/03/09 07:46:44;;;;;;;10.40;8.88;;;;;;;;;;5036633;28;20052;-78
2023/03/09 07:49:09;;;;;;;5.43;2.92;;;;;;;;;;5034338;28;20067;-79
2023/03/09 07:51:37;;;;;;;22.90;15.02;;;;;;;;;;5033436;28;20033;-77
2023/03/09 07:54:04;;;;;;;16.00;11.93;;;;;;;;;;5031378;28;21005;-76
2023/03/09 07:56:29;;;;;;;16.75;5.88;;;;;;;;;;5033210;28;20061;-78
2023/03/09 07:58:54;;;;;;;7.00;5.25;;;;;;;;;;5033873;28;20060;-78
2023/03/09 08:01:20;;;;;;;6.03;3.78;;;;;;;;;;5032351;28;20086;-77
2023/03/09 08:03:45;;;;;;;5.03;3.00;;;;;;;;;;5031631;28;20022;-78
2023/03/09 08:06:11;;;;;;;3.75;2.92;;;;;;;;;;5035077;28;20025;-78
2023/03/09 08:08:37;;;;;;;5.72;3.88;;;;;;;;;;5034487;28;20033;-79
2023/03/09 08:11:03;;;;;;;3.33;2.92;;;;;;;;;;5034263;28;20041;-78
2023/03/09 08:13:28;;;;;;;7.70;4.22;;;;;;;;;;5034258;28;20044;-79
2023/03/09 08:15:54;;;;;;;5.53;2.75;;;;;;;;;;5034748;28;20044;-79
2023/03/09 08:18:20;;;;;;;7.32;4.90;;;;;;;;;;5036916;28;20054;-79
2023/03/09 08:20:45;;;;;;;13.70;8.82;;;;;;;;;;5036398;28;20028;-80
2023/03/09 08:23:10;;;;;;;17.88;16.15;;;;;;;;;;5036837;28;20052;-79
2023/03/09 08:25:36;;;;;;;7.57;6.80;;;;;;;;;;5037325;28;20475;-80
2023/03/09 08:28:01;;;;;;;6.35;2.92;;;;;;;;;;5035984;28;20043;-78
2023/03/09 08:30:27;;;;;;;3.90;2.83;;;;;;;;;;5034987;28;20044;-78
2023/03/09 08:32:53;;;;;;;11.48;8.82;;;;;;;;;;5035955;28;20111;-81
2023/03/09 08:35:20;;;;;;;6.40;5.65;;;;;;;;;;5035504;28;20021;-79
2023/03/09 08:37:45;;;;;;;7.38;5.93;;;;;;;;;;5033043;28;20039;-79
2023/03/09 08:40:11;;;;;;;19.67;13.65;;;;;;;;;;5031640;28;20025;-79
2023/03/09 08:42:37;;;;;;;23.30;15.77;;;;;;;;;;5035103;28;20467;-78
2023/03/09 08:45:03;;;;;;;29.58;20.65;;;;;;;;;;5034980;28;20033;-80
2023/03/09 08:47:29;;;;;;;7.22;4.15;;;;;;;;;;5034755;28;20589;-79
2023/03/09 08:49:54;;;;;;;3.05;2.50;;;;;;;;;;5034671;28;20116;-79
2023/03/09 08:52:20;;;;;;;17.15;12.90;;;;;;;;;;5034157;28;20344;-79
2023/03/09 08:54:46;;;;;;;26.23;16.83;;;;;;;;;;5041319;28;20056;-80
2023/03/09 08:57:11;;;;;;;16.10;8.48;;;;;;;;;;5038692;28;20029;-79
2023/03/09 08:59:37;;;;;;;15.68;11.20;;;;;;;;;;5039471;28;20044;-79
2023/03/09 09:02:02;;;;;;;12.68;7.82;;;;;;;;;;5041752;28;20083;-79
2023/03/09 09:04:28;;;;;;;7.35;3.78;;;;;;;;;;5038743;28;20043;-79
2023/03/09 09:06:54;;;;;;;6.65;4.88;;;;;;;;;;5040541;28;20041;-79
2023/03/09 09:09:20;;;;;;;14.73;13.38;;;;;;;;;;5037967;28;20052;-78
2023/03/09 09:11:45;;;;;;;19.48;17.48;;;;;;;;;;5038332;28;20440;-78
2023/03/09 09:14:10;;;;;;;9.27;7.35;;;;;;;;;;5039087;28;20128;-78
2023/03/09 09:16:36;;;;;;;6.00;5.50;;;;;;;;;;5039070;28;20033;-79
2023/03/09 09:19:02;;;;;;;12.35;9.25;;;;;;;;;;5035417;28;20108;-79
2023/03/09 09:21:28;;;;;;;10.10;9.10;;;;;;;;;;5038969;28;20017;-79
2023/03/09 09:23:53;;;;;;;6.40;5.80;;;;;;;;;;5039338;28;20102;-78
2023/03/09 09:26:18;;;;;;;8.75;5.72;;;;;;;;;;5039367;28;20419;-79
2023/03/09 09:28:44;;;;;;;15.45;13.95;;;;;;;;;;5037319;28;20037;-79
2023/03/09 09:31:12;;;;;;;10.50;9.50;;;;;;;;;;5038576;28;20067;-79
2023/03/09 09:33:37;;;;;;;6.35;5.60;;;;;;;;;;5040813;28;20035;-81
2023/03/09 09:36:03;;;;;;;4.65;3.53;;;;;;;;;;5037995;28;20033;-79
2023/03/09 09:38:29;;;;;;;9.57;7.60;;;;;;;;;;5037780;28;20621;-78
2023/03/09 09:40:55;;;;;;;8.77;7.88;;;;;;;;;;5038771;28;20051;-78
2023/03/09 09:43:24;;;;;;;6.07;3.78;;;;;;;;;;5038146;28;20029;-79
2023/03/09 10:04:21;;;;;;;14.45;11.85;;;;;;;;;;5108650;27;20331;-76
2023/03/09 10:06:46;;;;;;;15.23;12.70;;;;;;;;;;5108677;28;20110;-76
2023/03/09 10:09:15;;;;;;;11.90;8.52;;;;;;;;;;5106862;28;20127;-76
2023/03/09 10:11:43;;;;;;;5.95;5.35;;;;;;;;;;5108706;28;20050;-76
2023/03/09 10:14:14;;;;;;;8.57;7.57;;;;;;;;;;5106511;28;20030;-76
2023/03/09 10:16:42;;;;;;;7.05;5.97;;;;;;;;;;5107094;28;20046;-76
2023/03/09 10:19:13;;;;;;;9.10;8.07;;;;;;;;;;5107727;28;20035;-77
2023/03/09 10:21:57;;;;;;;3.22;2.90;;;;;;;;;;5107799;28;20106;-77
2023/03/09 10:24:24;;;;;;;8.95;6.00;;;;;;;;;;5103945;28;20084;-76
2023/03/09 10:27:07;;;;;;;5.28;4.50;;;;;;;;;;5106724;28;20110;-77
2023/03/09 10:29:38;;;;;;;6.70;4.85;;;;;;;;;;5108078;28;20052;-76
2023/03/09 10:32:09;;;;;;;4.35;3.95;;;;;;;;;;5109334;28;20441;-76
2023/03/09 10:34:40;;;;;;;6.80;3.28;;;;;;;;;;5109720;28;20092;-77
2023/03/09 10:37:12;;;;;;;3.60;3.30;;;;;;;;;;5109454;28;20370;-77
2023/03/09 10:39:41;;;;;;;5.00;2.83;;;;;;;;;;5104739;28;20088;-77
2023/03/09 10:42:22;;;;;;;9.27;6.25;;;;;;;;;;5106849;28;20023;-78
2023/03/09 10:44:59;;;;;;;14.07;5.22;;;;;;;;;;5107604;28;20035;-76
2023/03/09 10:47:24;;;;;;;5.03;4.18;;;;;;;;;;5105573;28;20027;-77
2023/03/09 10:50:06;;;;;;;8.27;6.55;;;;;;;;;;5111129;28;20033;-76
2023/03/09 10:52:32;;;;;;;8.65;5.40;;;;;;;;;;5103278;28;20028;-76
2023/03/09 10:54:57;;;;;;;6.57;5.47;;;;;;;;;;5105827;28;20027;-76
2023/03/09 10:57:23;;;;;;;5.28;4.78;;;;;;;;;;5112395;28;20401;-77
2023/03/09 11:00:05;;;;;;;4.60;4.05;;;;;;;;;;5105604;28;20024;-77
2023/03/09 11:02:31;;;;;;;11.35;9.60;;;;;;;;;;5104233;28;20127;-77
2023/03/09 11:04:57;;;;;;;8.68;7.60;;;;;;;;;;5097043;28;20030;-77
2023/03/09 11:07:25;;;;;;;11.02;7.15;;;;;;;;;;5094768;28;20376;-76
2023/03/09 11:09:52;;;;;;;11.90;8.57;;;;;;;;;;5090189;28;20054;-76
2023/03/09 11:12:18;;;;;;;4.82;3.33;;;;;;;;;;5093694;28;20437;-77
2023/03/09 11:14:49;;;;;;;4.32;3.85;;;;;;;;;;5094154;28;20028;-77
2023/03/09 11:17:44;;;;;;;3.85;3.28;;;;;;;;;;5089921;28;20020;-76
2023/03/09 11:20:12;;;;;;;3.90;3.08;;;;;;;;;;5070313;28;20046;-77
2023/03/09 11:22:44;;;;;;;2.15;1.95;;;;;;;;;;5096252;28;20030;-76
2023/03/09 11:25:13;;;;;;;3.75;3.28;;;;;;;;;;5092285;28;20039;-77
2023/03/09 11:27:43;;;;;;;4.40;2.90;;;;;;;;;;5092364;28;20023;-77
2023/03/09 11:30:14;;;;;;;7.22;5.65;;;;;;;;;;5092581;28;20080;-76
2023/03/09 11:32:39;;;;;;;9.52;7.47;;;;;;;;;;5093236;28;20023;-76
2023/03/09 11:35:05;;;;;;;8.73;5.93;;;;;;;;;;5093261;28;20034;-76
2023/03/09 11:37:54;;;;;;;16.05;12.27;;;;;;;;;;5093030;28;20055;-77
2023/03/09 11:40:20;;;;;;;9.57;4.23;;;;;;;;;;5077868;28;20036;-76
2023/03/09 11:42:49;;;;;;;9.38;5.00;;;;;;;;;;5094665;28;20260;-77
2023/03/09 11:45:25;;;;;;;8.60;6.60;;;;;;;;;;5092059;28;20023;-76
2023/03/09 11:47:55;;;;;;;5.55;3.83;;;;;;;;;;5090383;28;20111;-76
2023/03/09 11:50:23;;;;;;;5.72;4.00;;;;;;;;;;5091987;28;20052;-77
2023/03/09 11:53:09;;;;;;;6.80;5.63;;;;;;;;;;5092021;28;20027;-77
2023/03/09 11:55:36;;;;;;;5.55;4.50;;;;;;;;;;5076111;28;20047;-76
2023/03/09 11:58:04;;;;;;;6.07;3.35;;;;;;;;;;5091968;28;20107;-77
2023/03/09 12:00:31;;;;;;;7.07;4.07;;;;;;;;;;5097155;28;20034;-76
2023/03/09 12:02:59;;;;;;;7.53;3.88;;;;;;;;;;5090939;28;20039;-77
2023/03/09 12:05:28;;;;;;;7.63;4.90;;;;;;;;;;5092740;28;20032;-77
2023/03/09 12:07:56;;;;;;;6.57;5.82;;;;;;;;;;5092722;28;20413;-76
2023/03/09 12:10:25;;;;;;;3.75;3.00;;;;;;;;;;5091632;28;20030;-75
2023/03/09 12:12:55;;;;;;;7.05;4.10;;;;;;;;;;5094329;28;20067;-77
2023/03/09 12:15:33;;;;;;;9.20;7.47;;;;;;;;;;5094924;28;20049;-76
2023/03/09 12:18:00;;;;;;;6.57;4.50;;;;;;;;;;5092438;28;20027;-76
2023/03/09 12:20:29;;;;;;;8.55;4.85;;;;;;;;;;5094250;28;20032;-76
2023/03/09 12:22:54;;;;;;;5.20;3.42;;;;;;;;;;5091109;28;20035;-77
2023/03/09 12:25:22;;;;;;;4.93;3.40;;;;;;;;;;5094497;28;20035;-76
2023/03/09 12:27:54;;;;;;;5.05;3.08;;;;;;;;;;5096772;28;20396;-76
2023/03/09 12:30:25;;;;;;;3.40;2.70;;;;;;;;;;5093100;28;20068;-76
2023/03/09 12:32:50;;;;;;;5.40;4.50;;;;;;;;;;5088396;28;20383;-76
2023/03/09 12:35:21;;;;;;;6.75;4.03;;;;;;;;;;5090995;28;20438;-75
2023/03/09 12:37:46;;;;;;;5.05;4.35;;;;;;;;;;5092457;28;20085;-76
2023/03/09 12:40:15;;;;;;;7.30;6.60;;;;;;;;;;5093183;28;20032;-77
2023/03/09 12:42:40;;;;;;;25.70;18.17;;;;;;;;;;5090825;28;20348;-76
2023/03/09 12:45:12;;;;;;;14.32;11.13;;;;;;;;;;5066409;28;20508;-77
2023/03/09 12:47:40;;;;;;;6.95;6.25;;;;;;;;;;5096131;28;20032;-77
2023/03/09 12:50:22;;;;;;;10.85;8.18;;;;;;;;;;5093380;28;20019;-77
2023/03/09 12:52:50;;;;;;;10.75;6.75;;;;;;;;;;5090098;28;20437;-76
2023/03/09 12:55:24;;;;;;;10.52;8.15;;;;;;;;;;5092314;28;20118;-77
2023/03/09 12:57:50;;;;;;;17.58;13.50;;;;;;;;;;5089749;28;20056;-77
2023/03/09 13:00:16;;;;;;;10.13;9.10;;;;;;;;;;5094862;28;20024;-77
2023/03/09 13:02:41;;;;;;;4.97;4.03;;;;;;;;;;5094293;28;20154;-77
2023/03/09 13:05:20;;;;;;;9.77;4.53;;;;;;;;;;5092771;28;20459;-77
2023/03/09 13:07:51;;;;;;;7.22;4.90;;;;;;;;;;5089290;28;20034;-76
2023/03/09 13:10:24;;;;;;;9.95;8.27;;;;;;;;;;5092176;28;20519;-77
2023/03/09 13:12:53;;;;;;;12.60;11.00;;;;;;;;;;5090087;28;20038;-76
2023/03/09 13:15:21;;;;;;;9.45;7.53;;;;;;;;;;5089482;28;20851;-77
2023/03/09 13:18:04;;;;;;;11.20;4.77;;;;;;;;;;5094236;28;20453;-75
2023/03/09 13:20:36;;;;;;;11.15;7.72;;;;;;;;;;5091031;28;20025;-77
2023/03/09 13:23:08;;;;;;;12.23;10.57;;;;;;;;;;5091672;28;20450;-77
2023/03/09 13:25:39;;;;;;;4.68;4.28;;;;;;;;;;5091032;28;20081;-76
2023/03/09 13:28:12;;;;;;;6.88;5.10;;;;;;;;;;5090963;28;20066;-76
2023/03/09 13:30:40;;;;;;;15.48;6.68;;;;;;;;;;5077067;28;20027;-77
2023/03/09 13:33:11;;;;;;;10.30;9.18;;;;;;;;;;5090830;28;20051;-76
2023/03/09 13:35:41;;;;;;;10.82;6.50;;;;;;;;;;5090242;28;20115;-76
2023/03/09 13:38:16;;;;;;;9.82;5.78;;;;;;;;;;5087861;28;20028;-76
2023/03/09 13:40:47;;;;;;;5.47;4.25;;;;;;;;;;5086373;28;20031;-78
2023/03/09 13:43:18;;;;;;;7.90;5.38;;;;;;;;;;5076490;28;20339;-77
2023/03/09 13:45:53;;;;;;;7.95;6.47;;;;;;;;;;5077287;28;20373;-78
2023/03/09 13:48:18;;;;;;;6.35;5.75;;;;;;;;;;5078021;28;20035;-75
2023/03/09 13:50:47;;;;;;;4.97;4.57;;;;;;;;;;5077003;28;20032;-76
2023/03/09 13:53:15;;;;;;;7.75;7.05;;;;;;;;;;5074672;28;20442;-79
2023/03/09 13:55:41;;;;;;;9.65;8.85;;;;;;;;;;5079527;28;20036;-75
2023/03/09 13:58:13;;;;;;;10.00;7.40;;;;;;;;;;5075261;28;20472;-78
2023/03/09 14:00:38;;;;;;;14.02;12.55;;;;;;;;;;5080208;28;20027;-76
2023/03/09 14:03:04;;;;;;;10.10;7.70;;;;;;;;;;5076973;28;21219;-76
2023/03/09 14:05:29;;;;;;;9.48;7.13;;;;;;;;;;5075092;28;20020;-77
2023/03/09 14:07:54;;;;;;;23.08;12.82;;;;;;;;;;5078739;28;20035;-76
2023/03/09 14:10:23;;;;;;;10.57;8.07;;;;;;;;;;5077602;28;20348;-76
2023/03/09 14:12:51;;;;;;;7.60;5.57;;;;;;;;;;5076947;28;20024;-77
2023/03/09 14:15:18;;;;;;;6.32;5.72;;;;;;;;;;5079099;28;20456;-76
2023/03/09 14:17:43;;;;;;;6.30;5.25;;;;;;;;;;5079145;28;20023;-75
2023/03/09 14:20:21;;;;;;;4.55;3.47;;;;;;;;;;5083795;28;20453;-73
2023/03/09 14:22:47;;;;;;;3.17;2.88;;;;;;;;;;5082716;28;20115;-78
2023/03/09 14:25:29;;;;;;;4.40;4.00;;;;;;;;;;5079960;28;20142;-75
2023/03/09 14:27:54;;;;;;;3.40;2.60;;;;;;;;;;5076606;28;20311;-75
2023/03/09 14:30:43;;;;;;;2.30;2.10;;;;;;;;;;5078996;28;20834;-75
2023/03/09 14:33:28;;;;;;;4.40;3.17;;;;;;;;;;5071058;28;20024;-76
2023/03/09 14:36:11;;;;;;;6.63;5.85;;;;;;;;;;5085918;28;20036;-74
2023/03/09 14:38:38;;;;;;;13.13;6.20;;;;;;;;;;5079315;28;20091;-76
2023/03/09 14:41:12;;;;;;;7.22;5.57;;;;;;;;;;5085319;28;20065;-76
2023/03/09 14:43:40;;;;;;;11.85;7.85;;;;;;;;;;5092814;28;20449;-75
2023/03/09 14:46:13;;;;;;;5.68;4.95;;;;;;;;;;5082817;28;20034;-75
2023/03/09 14:48:39;;;;;;;10.77;8.57;;;;;;;;;;5088705;28;20363;-77